sensor_id;sensor_type;location;lat;lon;timestamp;P1;durP1;ratioP1;P2;durP2;ratioP2
13520;SDS011;6832;51.186;3.236;2022-12-19T00:02:36;14.03;;;8.67;;
13520;SDS011;6832;51.186;3.236;2022-12-19T00:05:16;20.23;;;9.93;;
13520;SDS011;6832;51.186;3.236;2022-12-19T00:08:12;16.33;;;8.03;;
13520;SDS011;6832;51.186;3.236;2022-12-19T00:10:54;15.63;;;8.27;;
13520;SDS011;6832;51.186;3.236;2022-12-19T00:16:25;36.57;;;14.30;;
13520;SDS011;6832;51.186;3.236;2022-12-19T00:19:36;11.80;;;7.50;;
13520;SDS011;6832;51.186;3.236;2022-12-19T00:37:47;10.93;;;6.77;;
13520;SDS011;6832;51.186;3.236;2022-12-19T01:12:31;11.50;;;7.00;;
13520;SDS011;6832;51.186;3.236;2022-12-19T02:49:44;19.77;;;8.80;;
13520;SDS011;6832;51.186;3.236;2022-12-19T03:00:31;11.63;;;6.70;;
13520;SDS011;6832;51.186;3.236;2022-12-19T03:05:43;9.07;;;6.53;;
13520;SDS011;6832;51.186;3.236;2022-12-19T03:09:13;8.00;;;6.27;;
13520;SDS011;6832;51.186;3.236;2022-12-19T03:24:03;12.23;;;7.63;;
13520;SDS011;6832;51.186;3.236;2022-12-19T03:27:28;10.57;;;6.63;;
13520;SDS011;6832;51.186;3.236;2022-12-19T03:30:31;12.90;;;6.97;;
13520;SDS011;6832;51.186;3.236;2022-12-19T03:55:05;8.97;;;6.10;;
13520;SDS011;6832;51.186;3.236;2022-12-19T03:58:03;14.50;;;7.73;;
13520;SDS011;6832;51.186;3.236;2022-12-19T04:01:14;10.67;;;6.77;;
13520;SDS011;6832;51.186;3.236;2022-12-19T04:03:50;10.97;;;7.13;;
13520;SDS011;6832;51.186;3.236;2022-12-19T04:06:36;9.07;;;6.33;;
13520;SDS011;6832;51.186;3.236;2022-12-19T04:09:50;9.70;;;6.37;;
13520;SDS011;6832;51.186;3.236;2022-12-19T04:12:27;11.57;;;6.53;;
13520;SDS011;6832;51.186;3.236;2022-12-19T04:15:08;10.40;;;6.37;;
13520;SDS011;6832;51.186;3.236;2022-12-19T04:17:48;7.93;;;4.93;;
13520;SDS011;6832;51.186;3.236;2022-12-19T04:20:23;13.07;;;6.97;;
13520;SDS011;6832;51.186;3.236;2022-12-19T04:23:00;9.27;;;6.03;;
13520;SDS011;6832;51.186;3.236;2022-12-19T04:25:32;8.23;;;6.20;;
13520;SDS011;6832;51.186;3.236;2022-12-19T04:31:09;10.70;;;5.63;;
13520;SDS011;6832;51.186;3.236;2022-12-19T04:33:42;8.40;;;5.53;;
13520;SDS011;6832;51.186;3.236;2022-12-19T04:36:18;8.73;;;6.20;;
13520;SDS011;6832;51.186;3.236;2022-12-19T04:38:51;9.93;;;6.23;;
13520;SDS011;6832;51.186;3.236;2022-12-19T04:41:22;8.73;;;6.00;;
13520;SDS011;6832;51.186;3.236;2022-12-19T04:43:54;8.73;;;6.00;;
13520;SDS011;6832;51.186;3.236;2022-12-19T04:46:29;9.47;;;6.00;;
13520;SDS011;6832;51.186;3.236;2022-12-19T04:48:59;9.03;;;5.77;;
13520;SDS011;6832;51.186;3.236;2022-12-19T04:51:29;7.13;;;5.37;;
13520;SDS011;6832;51.186;3.236;2022-12-19T04:53:57;8.87;;;5.93;;
13520;SDS011;6832;51.186;3.236;2022-12-19T04:56:25;10.00;;;5.90;;
13520;SDS011;6832;51.186;3.236;2022-12-19T04:59:00;10.30;;;6.33;;
13520;SDS011;6832;51.186;3.236;2022-12-19T05:01:30;8.77;;;5.47;;
13520;SDS011;6832;51.186;3.236;2022-12-19T05:04:00;12.30;;;6.90;;
13520;SDS011;6832;51.186;3.236;2022-12-19T05:06:29;13.00;;;6.43;;
13520;SDS011;6832;51.186;3.236;2022-12-19T05:11:31;9.50;;;5.90;;
13520;SDS011;6832;51.186;3.236;2022-12-19T05:13:59;14.90;;;7.40;;
13520;SDS011;6832;51.186;3.236;2022-12-19T05:16:33;14.63;;;6.83;;
13520;SDS011;6832;51.186;3.236;2022-12-19T05:19:01;11.47;;;6.70;;
13520;SDS011;6832;51.186;3.236;2022-12-19T05:21:35;16.00;;;7.13;;
13520;SDS011;6832;51.186;3.236;2022-12-19T05:24:13;8.47;;;6.03;;
13520;SDS011;6832;51.186;3.236;2022-12-19T05:26:55;9.87;;;5.77;;
13520;SDS011;6832;51.186;3.236;2022-12-19T05:29:30;10.93;;;6.80;;
13520;SDS011;6832;51.186;3.236;2022-12-19T05:32:00;11.90;;;6.80;;
13520;SDS011;6832;51.186;3.236;2022-12-19T05:34:31;11.30;;;6.43;;
13520;SDS011;6832;51.186;3.236;2022-12-19T05:37:01;15.67;;;7.23;;
13520;SDS011;6832;51.186;3.236;2022-12-19T05:39:37;9.47;;;5.87;;
13520;SDS011;6832;51.186;3.236;2022-12-19T05:42:12;12.27;;;6.53;;
13520;SDS011;6832;51.186;3.236;2022-12-19T05:44:46;11.53;;;6.80;;
13520;SDS011;6832;51.186;3.236;2022-12-19T05:47:37;11.10;;;5.67;;
13520;SDS011;6832;51.186;3.236;2022-12-19T05:50:07;12.27;;;6.00;;
13520;SDS011;6832;51.186;3.236;2022-12-19T05:52:37;11.23;;;6.20;;
13520;SDS011;6832;51.186;3.236;2022-12-19T05:55:10;9.87;;;5.83;;
13520;SDS011;6832;51.186;3.236;2022-12-19T05:57:54;11.07;;;5.73;;
13520;SDS011;6832;51.186;3.236;2022-12-19T06:00:27;11.00;;;5.90;;
13520;SDS011;6832;51.186;3.236;2022-12-19T06:03:00;9.20;;;5.30;;
13520;SDS011;6832;51.186;3.236;2022-12-19T06:05:40;9.77;;;5.60;;
13520;SDS011;6832;51.186;3.236;2022-12-19T06:08:09;10.43;;;5.70;;
13520;SDS011;6832;51.186;3.236;2022-12-19T06:10:38;10.97;;;5.93;;
13520;SDS011;6832;51.186;3.236;2022-12-19T06:13:11;9.07;;;5.67;;
13520;SDS011;6832;51.186;3.236;2022-12-19T06:15:54;12.30;;;7.13;;
13520;SDS011;6832;51.186;3.236;2022-12-19T06:18:27;8.77;;;4.97;;
13520;SDS011;6832;51.186;3.236;2022-12-19T06:21:07;8.50;;;4.83;;
13520;SDS011;6832;51.186;3.236;2022-12-19T06:23:50;8.80;;;5.53;;
13520;SDS011;6832;51.186;3.236;2022-12-19T06:26:27;10.10;;;5.63;;
13520;SDS011;6832;51.186;3.236;2022-12-19T06:28:57;12.47;;;6.43;;
13520;SDS011;6832;51.186;3.236;2022-12-19T06:31:29;7.40;;;5.30;;
13520;SDS011;6832;51.186;3.236;2022-12-19T06:36:51;9.80;;;5.57;;
13520;SDS011;6832;51.186;3.236;2022-12-19T06:39:20;12.03;;;6.20;;
13520;SDS011;6832;51.186;3.236;2022-12-19T06:41:57;8.40;;;5.17;;
13520;SDS011;6832;51.186;3.236;2022-12-19T06:44:44;7.07;;;4.70;;
13520;SDS011;6832;51.186;3.236;2022-12-19T06:47:14;9.00;;;5.00;;
13520;SDS011;6832;51.186;3.236;2022-12-19T06:49:45;8.17;;;4.77;;
13520;SDS011;6832;51.186;3.236;2022-12-19T06:52:23;6.17;;;4.70;;
13520;SDS011;6832;51.186;3.236;2022-12-19T06:54:52;8.07;;;5.27;;
13520;SDS011;6832;51.186;3.236;2022-12-19T06:57:23;6.90;;;4.90;;
13520;SDS011;6832;51.186;3.236;2022-12-19T06:59:57;9.77;;;5.57;;
13520;SDS011;6832;51.186;3.236;2022-12-19T07:02:28;10.30;;;5.87;;
13520;SDS011;6832;51.186;3.236;2022-12-19T07:05:06;5.67;;;4.57;;
13520;SDS011;6832;51.186;3.236;2022-12-19T07:07:37;6.20;;;4.80;;
13520;SDS011;6832;51.186;3.236;2022-12-19T07:10:12;8.73;;;4.33;;
13520;SDS011;6832;51.186;3.236;2022-12-19T07:12:59;11.60;;;4.73;;
13520;SDS011;6832;51.186;3.236;2022-12-19T07:15:34;7.07;;;5.00;;
13520;SDS011;6832;51.186;3.236;2022-12-19T07:21:36;8.10;;;4.77;;
13520;SDS011;6832;51.186;3.236;2022-12-19T07:24:24;9.10;;;5.37;;
13520;SDS011;6832;51.186;3.236;2022-12-19T07:27:06;7.73;;;4.60;;
13520;SDS011;6832;51.186;3.236;2022-12-19T07:29:37;7.00;;;5.07;;
13520;SDS011;6832;51.186;3.236;2022-12-19T07:32:06;7.73;;;5.03;;
13520;SDS011;6832;51.186;3.236;2022-12-19T07:34:35;11.63;;;5.37;;
13520;SDS011;6832;51.186;3.236;2022-12-19T07:37:13;6.17;;;4.53;;
13520;SDS011;6832;51.186;3.236;2022-12-19T07:39:41;9.83;;;5.33;;
13520;SDS011;6832;51.186;3.236;2022-12-19T07:42:14;6.40;;;4.30;;
13520;SDS011;6832;51.186;3.236;2022-12-19T07:44:50;9.20;;;5.60;;
13520;SDS011;6832;51.186;3.236;2022-12-19T07:47:23;8.50;;;4.40;;
13520;SDS011;6832;51.186;3.236;2022-12-19T07:49:59;9.90;;;5.53;;
13520;SDS011;6832;51.186;3.236;2022-12-19T07:52:28;7.57;;;5.10;;
13520;SDS011;6832;51.186;3.236;2022-12-19T07:54:56;9.97;;;5.73;;
13520;SDS011;6832;51.186;3.236;2022-12-19T07:57:29;9.63;;;4.87;;
13520;SDS011;6832;51.186;3.236;2022-12-19T08:02:52;10.47;;;5.07;;
13520;SDS011;6832;51.186;3.236;2022-12-19T08:05:29;9.33;;;5.50;;
13520;SDS011;6832;51.186;3.236;2022-12-19T08:08:10;7.73;;;4.63;;
13520;SDS011;6832;51.186;3.236;2022-12-19T08:10:45;6.80;;;4.30;;
13520;SDS011;6832;51.186;3.236;2022-12-19T08:13:15;14.30;;;5.67;;
13520;SDS011;6832;51.186;3.236;2022-12-19T08:15:58;9.93;;;5.23;;
13520;SDS011;6832;51.186;3.236;2022-12-19T08:21:42;12.33;;;5.20;;
13520;SDS011;6832;51.186;3.236;2022-12-19T08:24:46;8.47;;;4.73;;
13520;SDS011;6832;51.186;3.236;2022-12-19T08:27:30;8.83;;;5.13;;
13520;SDS011;6832;51.186;3.236;2022-12-19T08:30:05;9.30;;;5.17;;
13520;SDS011;6832;51.186;3.236;2022-12-19T08:32:43;8.90;;;4.73;;
13520;SDS011;6832;51.186;3.236;2022-12-19T08:35:11;11.30;;;5.83;;
13520;SDS011;6832;51.186;3.236;2022-12-19T08:37:47;7.33;;;4.30;;
13520;SDS011;6832;51.186;3.236;2022-12-19T08:40:37;7.70;;;4.50;;
13520;SDS011;6832;51.186;3.236;2022-12-19T08:43:20;6.40;;;4.07;;
13520;SDS011;6832;51.186;3.236;2022-12-19T08:45:48;6.97;;;4.57;;
13520;SDS011;6832;51.186;3.236;2022-12-19T08:48:45;8.37;;;4.67;;
13520;SDS011;6832;51.186;3.236;2022-12-19T08:54:41;11.00;;;5.07;;
13520;SDS011;6832;51.186;3.236;2022-12-19T09:00:46;7.93;;;4.60;;
13520;SDS011;6832;51.186;3.236;2022-12-19T09:03:27;8.63;;;4.37;;
13520;SDS011;6832;51.186;3.236;2022-12-19T09:06:30;7.03;;;3.83;;
13520;SDS011;6832;51.186;3.236;2022-12-19T09:12:07;8.17;;;4.53;;
13520;SDS011;6832;51.186;3.236;2022-12-19T09:21:00;7.73;;;4.33;;
13520;SDS011;6832;51.186;3.236;2022-12-19T09:23:49;8.40;;;4.23;;
13520;SDS011;6832;51.186;3.236;2022-12-19T09:26:31;7.80;;;4.07;;
13520;SDS011;6832;51.186;3.236;2022-12-19T09:32:06;6.73;;;4.03;;
13520;SDS011;6832;51.186;3.236;2022-12-19T09:34:52;9.67;;;4.63;;
13520;SDS011;6832;51.186;3.236;2022-12-19T09:37:25;8.03;;;4.30;;
13520;SDS011;6832;51.186;3.236;2022-12-19T09:39:59;6.63;;;3.50;;
13520;SDS011;6832;51.186;3.236;2022-12-19T09:42:33;7.67;;;4.67;;
13520;SDS011;6832;51.186;3.236;2022-12-19T09:45:26;7.17;;;4.23;;
13520;SDS011;6832;51.186;3.236;2022-12-19T09:48:10;8.17;;;4.33;;
13520;SDS011;6832;51.186;3.236;2022-12-19T09:50:52;8.50;;;4.00;;
13520;SDS011;6832;51.186;3.236;2022-12-19T09:53:26;6.37;;;3.97;;
13520;SDS011;6832;51.186;3.236;2022-12-19T09:56:01;10.00;;;3.90;;
13520;SDS011;6832;51.186;3.236;2022-12-19T09:58:30;7.90;;;4.83;;
13520;SDS011;6832;51.186;3.236;2022-12-19T10:01:07;10.23;;;5.20;;
13520;SDS011;6832;51.186;3.236;2022-12-19T10:03:45;9.67;;;4.07;;
13520;SDS011;6832;51.186;3.236;2022-12-19T10:06:32;10.43;;;4.77;;
13520;SDS011;6832;51.186;3.236;2022-12-19T10:09:08;11.10;;;4.80;;
13520;SDS011;6832;51.186;3.236;2022-12-19T10:11:42;10.50;;;5.20;;
13520;SDS011;6832;51.186;3.236;2022-12-19T10:14:49;12.47;;;5.17;;
13520;SDS011;6832;51.186;3.236;2022-12-19T10:17:29;12.13;;;5.20;;
13520;SDS011;6832;51.186;3.236;2022-12-19T10:20:18;9.87;;;4.63;;
13520;SDS011;6832;51.186;3.236;2022-12-19T10:23:14;7.20;;;4.37;;
13520;SDS011;6832;51.186;3.236;2022-12-19T10:25:59;9.00;;;4.93;;
13520;SDS011;6832;51.186;3.236;2022-12-19T10:28:45;9.77;;;4.97;;
13520;SDS011;6832;51.186;3.236;2022-12-19T10:31:31;7.77;;;4.73;;
13520;SDS011;6832;51.186;3.236;2022-12-19T10:34:05;9.97;;;5.40;;
13520;SDS011;6832;51.186;3.236;2022-12-19T10:36:42;9.30;;;4.93;;
13520;SDS011;6832;51.186;3.236;2022-12-19T10:39:22;14.90;;;6.27;;
13520;SDS011;6832;51.186;3.236;2022-12-19T10:42:02;10.63;;;6.93;;
13520;SDS011;6832;51.186;3.236;2022-12-19T10:44:37;18.30;;;12.07;;
13520;SDS011;6832;51.186;3.236;2022-12-19T10:47:09;11.10;;;7.20;;
13520;SDS011;6832;51.186;3.236;2022-12-19T10:49:42;12.50;;;6.37;;
13520;SDS011;6832;51.186;3.236;2022-12-19T10:52:10;7.00;;;4.97;;
13520;SDS011;6832;51.186;3.236;2022-12-19T10:54:47;9.70;;;5.17;;
13520;SDS011;6832;51.186;3.236;2022-12-19T10:57:22;10.10;;;4.90;;
13520;SDS011;6832;51.186;3.236;2022-12-19T10:59:54;8.73;;;4.87;;
13520;SDS011;6832;51.186;3.236;2022-12-19T11:02:29;8.63;;;4.50;;
13520;SDS011;6832;51.186;3.236;2022-12-19T11:05:19;8.37;;;4.80;;
13520;SDS011;6832;51.186;3.236;2022-12-19T11:08:02;9.00;;;4.60;;
13520;SDS011;6832;51.186;3.236;2022-12-19T11:10:52;10.77;;;5.43;;
13520;SDS011;6832;51.186;3.236;2022-12-19T11:13:23;11.87;;;5.27;;
13520;SDS011;6832;51.186;3.236;2022-12-19T11:16:00;10.67;;;5.53;;
13520;SDS011;6832;51.186;3.236;2022-12-19T11:18:34;11.77;;;5.03;;
13520;SDS011;6832;51.186;3.236;2022-12-19T11:21:04;7.57;;;4.57;;
13520;SDS011;6832;51.186;3.236;2022-12-19T11:23:42;9.40;;;4.70;;
13520;SDS011;6832;51.186;3.236;2022-12-19T11:26:27;11.47;;;5.63;;
13520;SDS011;6832;51.186;3.236;2022-12-19T11:29:02;11.83;;;6.33;;
13520;SDS011;6832;51.186;3.236;2022-12-19T11:31:47;8.50;;;4.60;;
13520;SDS011;6832;51.186;3.236;2022-12-19T11:36:55;9.77;;;5.17;;
13520;SDS011;6832;51.186;3.236;2022-12-19T11:39:38;10.50;;;4.70;;
13520;SDS011;6832;51.186;3.236;2022-12-19T11:42:14;11.67;;;5.20;;
13520;SDS011;6832;51.186;3.236;2022-12-19T11:47:29;7.83;;;4.53;;
13520;SDS011;6832;51.186;3.236;2022-12-19T11:50:02;9.10;;;5.27;;
13520;SDS011;6832;51.186;3.236;2022-12-19T11:52:39;10.30;;;4.70;;
13520;SDS011;6832;51.186;3.236;2022-12-19T11:55:15;9.97;;;5.40;;
13520;SDS011;6832;51.186;3.236;2022-12-19T11:58:20;9.30;;;4.50;;
13520;SDS011;6832;51.186;3.236;2022-12-19T12:00:50;7.53;;;4.97;;
13520;SDS011;6832;51.186;3.236;2022-12-19T12:03:31;8.77;;;4.93;;
13520;SDS011;6832;51.186;3.236;2022-12-19T12:06:23;8.63;;;4.80;;
13520;SDS011;6832;51.186;3.236;2022-12-19T12:08:58;15.87;;;5.10;;
13520;SDS011;6832;51.186;3.236;2022-12-19T12:11:36;10.57;;;4.87;;
13520;SDS011;6832;51.186;3.236;2022-12-19T12:14:14;11.17;;;5.03;;
13520;SDS011;6832;51.186;3.236;2022-12-19T12:19:52;8.20;;;4.87;;
13520;SDS011;6832;51.186;3.236;2022-12-19T12:22:43;7.77;;;4.87;;
13520;SDS011;6832;51.186;3.236;2022-12-19T12:25:24;5.23;;;3.87;;
13520;SDS011;6832;51.186;3.236;2022-12-19T12:28:03;11.33;;;4.77;;
13520;SDS011;6832;51.186;3.236;2022-12-19T12:30:48;9.80;;;5.13;;
13520;SDS011;6832;51.186;3.236;2022-12-19T12:33:27;9.60;;;5.03;;
13520;SDS011;6832;51.186;3.236;2022-12-19T12:36:04;10.23;;;4.97;;
13520;SDS011;6832;51.186;3.236;2022-12-19T12:38:45;23.07;;;7.50;;
13520;SDS011;6832;51.186;3.236;2022-12-19T12:41:25;9.17;;;4.97;;
13520;SDS011;6832;51.186;3.236;2022-12-19T12:44:24;17.00;;;7.20;;
13520;SDS011;6832;51.186;3.236;2022-12-19T12:46:57;10.13;;;4.67;;
13520;SDS011;6832;51.186;3.236;2022-12-19T12:49:39;9.47;;;4.63;;
13520;SDS011;6832;51.186;3.236;2022-12-19T12:52:12;10.93;;;5.20;;
13520;SDS011;6832;51.186;3.236;2022-12-19T12:54:46;7.97;;;4.63;;
13520;SDS011;6832;51.186;3.236;2022-12-19T12:57:31;9.77;;;5.20;;
13520;SDS011;6832;51.186;3.236;2022-12-19T13:00:16;10.17;;;5.03;;
13520;SDS011;6832;51.186;3.236;2022-12-19T13:02:56;9.33;;;4.80;;
13520;SDS011;6832;51.186;3.236;2022-12-19T13:05:39;11.87;;;5.67;;
13520;SDS011;6832;51.186;3.236;2022-12-19T13:08:24;7.93;;;4.20;;
13520;SDS011;6832;51.186;3.236;2022-12-19T13:10:56;9.53;;;4.30;;
13520;SDS011;6832;51.186;3.236;2022-12-19T13:19:18;9.10;;;4.20;;
13520;SDS011;6832;51.186;3.236;2022-12-19T13:24:44;7.40;;;4.23;;
13520;SDS011;6832;51.186;3.236;2022-12-19T13:35:41;9.00;;;4.33;;
13520;SDS011;6832;51.186;3.236;2022-12-19T13:38:19;10.67;;;4.73;;
13520;SDS011;6832;51.186;3.236;2022-12-19T13:41:00;13.50;;;5.67;;
13520;SDS011;6832;51.186;3.236;2022-12-19T13:43:57;10.27;;;5.60;;
13520;SDS011;6832;51.186;3.236;2022-12-19T13:46:29;11.40;;;5.10;;
13520;SDS011;6832;51.186;3.236;2022-12-19T13:49:19;8.03;;;4.43;;
13520;SDS011;6832;51.186;3.236;2022-12-19T13:51:55;9.40;;;4.60;;
13520;SDS011;6832;51.186;3.236;2022-12-19T13:54:24;9.80;;;4.87;;
13520;SDS011;6832;51.186;3.236;2022-12-19T13:56:55;7.03;;;4.10;;
13520;SDS011;6832;51.186;3.236;2022-12-19T14:02:04;18.27;;;6.37;;
13520;SDS011;6832;51.186;3.236;2022-12-19T14:04:34;13.57;;;4.60;;
13520;SDS011;6832;51.186;3.236;2022-12-19T14:10:13;6.80;;;4.60;;
13520;SDS011;6832;51.186;3.236;2022-12-19T14:12:44;12.03;;;5.60;;
13520;SDS011;6832;51.186;3.236;2022-12-19T14:15:35;11.40;;;5.07;;
13520;SDS011;6832;51.186;3.236;2022-12-19T14:18:08;15.47;;;4.87;;
13520;SDS011;6832;51.186;3.236;2022-12-19T14:20:45;9.53;;;4.50;;
13520;SDS011;6832;51.186;3.236;2022-12-19T14:23:20;11.07;;;4.77;;
13520;SDS011;6832;51.186;3.236;2022-12-19T14:25:49;9.03;;;4.57;;
13520;SDS011;6832;51.186;3.236;2022-12-19T14:28:22;8.73;;;4.27;;
13520;SDS011;6832;51.186;3.236;2022-12-19T14:30:59;7.90;;;3.97;;
13520;SDS011;6832;51.186;3.236;2022-12-19T14:33:33;11.30;;;4.70;;
13520;SDS011;6832;51.186;3.236;2022-12-19T14:36:05;7.13;;;4.00;;
13520;SDS011;6832;51.186;3.236;2022-12-19T14:38:35;13.07;;;5.43;;
13520;SDS011;6832;51.186;3.236;2022-12-19T14:41:05;8.23;;;4.47;;
13520;SDS011;6832;51.186;3.236;2022-12-19T14:43:57;7.87;;;4.13;;
13520;SDS011;6832;51.186;3.236;2022-12-19T14:46:25;9.00;;;4.87;;
13520;SDS011;6832;51.186;3.236;2022-12-19T14:48:58;7.60;;;4.50;;
13520;SDS011;6832;51.186;3.236;2022-12-19T14:51:31;8.87;;;4.03;;
13520;SDS011;6832;51.186;3.236;2022-12-19T14:54:20;11.80;;;4.73;;
13520;SDS011;6832;51.186;3.236;2022-12-19T14:56:51;8.03;;;4.87;;
13520;SDS011;6832;51.186;3.236;2022-12-19T14:59:28;11.07;;;5.80;;
13520;SDS011;6832;51.186;3.236;2022-12-19T15:05:05;6.07;;;4.07;;
13520;SDS011;6832;51.186;3.236;2022-12-19T15:07:40;9.30;;;4.00;;
13520;SDS011;6832;51.186;3.236;2022-12-19T15:10:15;9.60;;;4.57;;
13520;SDS011;6832;51.186;3.236;2022-12-19T15:12:48;9.70;;;4.43;;
13520;SDS011;6832;51.186;3.236;2022-12-19T15:15:41;6.77;;;4.33;;
13520;SDS011;6832;51.186;3.236;2022-12-19T15:18:23;8.90;;;4.90;;
13520;SDS011;6832;51.186;3.236;2022-12-19T15:20:57;6.37;;;3.97;;
13520;SDS011;6832;51.186;3.236;2022-12-19T15:23:38;7.30;;;4.23;;
13520;SDS011;6832;51.186;3.236;2022-12-19T15:26:25;6.00;;;3.70;;
13520;SDS011;6832;51.186;3.236;2022-12-19T15:28:55;7.37;;;4.17;;
13520;SDS011;6832;51.186;3.236;2022-12-19T15:31:29;6.93;;;4.00;;
13520;SDS011;6832;51.186;3.236;2022-12-19T15:34:15;7.63;;;4.50;;
13520;SDS011;6832;51.186;3.236;2022-12-19T15:36:51;7.57;;;4.40;;
13520;SDS011;6832;51.186;3.236;2022-12-19T15:39:27;5.50;;;3.60;;
13520;SDS011;6832;51.186;3.236;2022-12-19T15:41:58;9.70;;;4.73;;
13520;SDS011;6832;51.186;3.236;2022-12-19T15:44:36;6.73;;;4.10;;
13520;SDS011;6832;51.186;3.236;2022-12-19T15:47:17;7.73;;;4.53;;
13520;SDS011;6832;51.186;3.236;2022-12-19T15:49:51;5.93;;;3.70;;
13520;SDS011;6832;51.186;3.236;2022-12-19T15:55:12;8.37;;;4.07;;
13520;SDS011;6832;51.186;3.236;2022-12-19T15:57:48;7.03;;;4.40;;
13520;SDS011;6832;51.186;3.236;2022-12-19T16:00:39;5.83;;;3.77;;
13520;SDS011;6832;51.186;3.236;2022-12-19T16:03:25;5.00;;;3.30;;
13520;SDS011;6832;51.186;3.236;2022-12-19T16:05:56;7.13;;;3.67;;
13520;SDS011;6832;51.186;3.236;2022-12-19T16:08:44;8.70;;;4.23;;
13520;SDS011;6832;51.186;3.236;2022-12-19T16:13:51;7.70;;;4.37;;
13520;SDS011;6832;51.186;3.236;2022-12-19T16:16:29;8.73;;;4.50;;
13520;SDS011;6832;51.186;3.236;2022-12-19T16:21:57;8.23;;;4.47;;
13520;SDS011;6832;51.186;3.236;2022-12-19T16:24:28;7.27;;;4.23;;
13520;SDS011;6832;51.186;3.236;2022-12-19T16:26:57;5.57;;;3.87;;
13520;SDS011;6832;51.186;3.236;2022-12-19T16:29:35;7.37;;;4.53;;
13520;SDS011;6832;51.186;3.236;2022-12-19T16:32:04;5.53;;;4.03;;
13520;SDS011;6832;51.186;3.236;2022-12-19T16:37:09;6.40;;;4.53;;
13520;SDS011;6832;51.186;3.236;2022-12-19T16:39:43;10.40;;;5.00;;
13520;SDS011;6832;51.186;3.236;2022-12-19T16:42:19;9.47;;;5.00;;
13520;SDS011;6832;51.186;3.236;2022-12-19T16:44:49;9.67;;;5.37;;
13520;SDS011;6832;51.186;3.236;2022-12-19T16:47:20;6.73;;;3.63;;
13520;SDS011;6832;51.186;3.236;2022-12-19T16:49:55;8.73;;;4.77;;
13520;SDS011;6832;51.186;3.236;2022-12-19T16:52:26;8.00;;;5.10;;
13520;SDS011;6832;51.186;3.236;2022-12-19T16:55:00;11.53;;;4.50;;
13520;SDS011;6832;51.186;3.236;2022-12-19T16:57:46;7.77;;;4.67;;
13520;SDS011;6832;51.186;3.236;2022-12-19T17:00:37;11.27;;;4.80;;
13520;SDS011;6832;51.186;3.236;2022-12-19T17:03:24;9.83;;;5.00;;
13520;SDS011;6832;51.186;3.236;2022-12-19T17:06:12;7.60;;;4.23;;
13520;SDS011;6832;51.186;3.236;2022-12-19T17:08:44;9.20;;;4.47;;
13520;SDS011;6832;51.186;3.236;2022-12-19T17:11:21;10.83;;;5.00;;
13520;SDS011;6832;51.186;3.236;2022-12-19T17:13:54;8.83;;;5.10;;
13520;SDS011;6832;51.186;3.236;2022-12-19T17:16:42;8.43;;;4.87;;
13520;SDS011;6832;51.186;3.236;2022-12-19T17:19:16;8.97;;;4.40;;
13520;SDS011;6832;51.186;3.236;2022-12-19T17:21:53;9.07;;;4.53;;
13520;SDS011;6832;51.186;3.236;2022-12-19T17:24:31;9.60;;;5.03;;
13520;SDS011;6832;51.186;3.236;2022-12-19T17:27:08;6.57;;;3.93;;
13520;SDS011;6832;51.186;3.236;2022-12-19T17:29:43;9.43;;;5.13;;
13520;SDS011;6832;51.186;3.236;2022-12-19T17:32:20;9.40;;;4.80;;
13520;SDS011;6832;51.186;3.236;2022-12-19T17:35:06;7.47;;;4.47;;
13520;SDS011;6832;51.186;3.236;2022-12-19T17:37:48;7.47;;;4.53;;
13520;SDS011;6832;51.186;3.236;2022-12-19T17:40:28;5.70;;;4.20;;
13520;SDS011;6832;51.186;3.236;2022-12-19T17:43:00;12.67;;;5.93;;
13520;SDS011;6832;51.186;3.236;2022-12-19T17:45:51;7.63;;;4.77;;
13520;SDS011;6832;51.186;3.236;2022-12-19T17:54:46;7.57;;;4.80;;
13520;SDS011;6832;51.186;3.236;2022-12-19T17:57:33;11.03;;;5.00;;
13520;SDS011;6832;51.186;3.236;2022-12-19T18:00:07;7.70;;;4.47;;
13520;SDS011;6832;51.186;3.236;2022-12-19T18:02:58;8.33;;;4.50;;
13520;SDS011;6832;51.186;3.236;2022-12-19T18:12:11;8.07;;;4.20;;
13520;SDS011;6832;51.186;3.236;2022-12-19T18:15:01;11.37;;;5.13;;
13520;SDS011;6832;51.186;3.236;2022-12-19T18:20:14;9.43;;;4.73;;
13520;SDS011;6832;51.186;3.236;2022-12-19T18:23:18;12.37;;;5.10;;
13520;SDS011;6832;51.186;3.236;2022-12-19T18:26:14;8.00;;;4.87;;
13520;SDS011;6832;51.186;3.236;2022-12-19T18:32:19;7.83;;;4.83;;
13520;SDS011;6832;51.186;3.236;2022-12-19T18:35:01;10.67;;;5.60;;
13520;SDS011;6832;51.186;3.236;2022-12-19T18:37:45;10.10;;;5.03;;
13520;SDS011;6832;51.186;3.236;2022-12-19T18:43:43;7.80;;;4.80;;
13520;SDS011;6832;51.186;3.236;2022-12-19T18:46:40;11.73;;;5.07;;
13520;SDS011;6832;51.186;3.236;2022-12-19T19:02:57;8.53;;;5.13;;
13520;SDS011;6832;51.186;3.236;2022-12-19T19:09:16;11.60;;;5.73;;
13520;SDS011;6832;51.186;3.236;2022-12-19T19:27:11;7.40;;;3.83;;
13520;SDS011;6832;51.186;3.236;2022-12-19T19:29:56;8.47;;;5.03;;
13520;SDS011;6832;51.186;3.236;2022-12-19T19:32:44;7.67;;;4.60;;
13520;SDS011;6832;51.186;3.236;2022-12-19T19:36:17;8.67;;;4.73;;
13520;SDS011;6832;51.186;3.236;2022-12-19T19:39:14;8.27;;;5.27;;
13520;SDS011;6832;51.186;3.236;2022-12-19T19:42:39;8.27;;;4.37;;
13520;SDS011;6832;51.186;3.236;2022-12-19T19:45:21;6.63;;;4.23;;
13520;SDS011;6832;51.186;3.236;2022-12-19T19:48:01;10.83;;;5.83;;
13520;SDS011;6832;51.186;3.236;2022-12-19T19:54:26;11.43;;;5.33;;
13520;SDS011;6832;51.186;3.236;2022-12-19T19:57:30;8.73;;;4.47;;
13520;SDS011;6832;51.186;3.236;2022-12-19T20:00:14;10.77;;;5.30;;
13520;SDS011;6832;51.186;3.236;2022-12-19T20:03:07;12.10;;;5.63;;
13520;SDS011;6832;51.186;3.236;2022-12-19T20:06:11;8.07;;;4.97;;
13520;SDS011;6832;51.186;3.236;2022-12-19T20:12:22;7.43;;;5.23;;
13520;SDS011;6832;51.186;3.236;2022-12-19T20:47:11;7.47;;;4.67;;
13520;SDS011;6832;51.186;3.236;2022-12-19T20:53:49;10.80;;;4.43;;
13520;SDS011;6832;51.186;3.236;2022-12-19T20:56:43;9.60;;;4.80;;
13520;SDS011;6832;51.186;3.236;2022-12-19T20:59:22;6.23;;;4.20;;
13520;SDS011;6832;51.186;3.236;2022-12-19T21:02:13;11.23;;;5.70;;
13520;SDS011;6832;51.186;3.236;2022-12-19T21:05:31;7.93;;;4.90;;
13520;SDS011;6832;51.186;3.236;2022-12-19T21:38:16;8.40;;;4.77;;
13520;SDS011;6832;51.186;3.236;2022-12-19T21:41:01;8.43;;;4.77;;
13520;SDS011;6832;51.186;3.236;2022-12-19T21:44:05;7.77;;;4.60;;
13520;SDS011;6832;51.186;3.236;2022-12-19T21:46:53;6.97;;;4.47;;
13520;SDS011;6832;51.186;3.236;2022-12-19T22:25:02;6.70;;;4.60;;
13520;SDS011;6832;51.186;3.236;2022-12-19T22:28:10;8.87;;;4.97;;
13520;SDS011;6832;51.186;3.236;2022-12-19T22:34:04;7.47;;;4.77;;
13520;SDS011;6832;51.186;3.236;2022-12-19T22:36:48;9.57;;;5.03;;
13520;SDS011;6832;51.186;3.236;2022-12-19T22:39:54;8.60;;;4.67;;
13520;SDS011;6832;51.186;3.236;2022-12-19T22:46:08;8.27;;;4.30;;
13520;SDS011;6832;51.186;3.236;2022-12-19T22:49:09;7.53;;;4.67;;
13520;SDS011;6832;51.186;3.236;2022-12-19T22:55:25;6.73;;;4.00;;
13520;SDS011;6832;51.186;3.236;2022-12-19T22:58:17;10.50;;;4.80;;
13520;SDS011;6832;51.186;3.236;2022-12-19T23:01:24;6.40;;;4.03;;
13520;SDS011;6832;51.186;3.236;2022-12-19T23:04:06;10.37;;;4.30;;
13520;SDS011;6832;51.186;3.236;2022-12-19T23:06:53;6.93;;;4.33;;
13520;SDS011;6832;51.186;3.236;2022-12-19T23:31:33;8.20;;;4.07;;
13520;SDS011;6832;51.186;3.236;2022-12-19T23:34:17;7.07;;;3.57;;
13520;SDS011;6832;51.186;3.236;2022-12-19T23:37:09;11.33;;;5.20;;
13520;SDS011;6832;51.186;3.236;2022-12-19T23:40:03;9.53;;;4.63;;
13520;SDS011;6832;51.186;3.236;2022-12-19T23:42:52;7.33;;;3.77;;
13520;SDS011;6832;51.186;3.236;2022-12-19T23:45:23;7.07;;;4.10;;
13520;SDS011;6832;51.186;3.236;2022-12-19T23:47:59;6.20;;;3.93;;
13520;SDS011;6832;51.186;3.236;2022-12-19T23:50:31;7.63;;;3.77;;
13520;SDS011;6832;51.186;3.236;2022-12-19T23:56:08;6.17;;;3.57;;
13520;SDS011;6832;51.186;3.236;2022-12-19T23:59:31;10.63;;;4.20;;
